首页
METAR-TAF:

METAR-TAF

机场 :

洛杉矶, 加利福尼亚州, 美国

洛杉磯國際機場

纬度: 33-56-17N, 经度: 118-23-20W, 海拔: 38米

当前天气观测

该预报发布于55分钟前的05:53 UTC
风速9节,风向
温度 14°C
湿度 63%
气压 1014 hPa
能見度: 16.1公里
散云层高于2600英尺
多云层高于20000英尺

METAR: KLAX 200553Z 01009KT 10SM SCT026 BKN200 14/07 A2993 RMK AO2 SLP133 T01390072 10156 20139 53003

时间: 22:48 (06:48 UTC)

预报

该预报发布于1小时和1分钟前的05:47 UTC
预报有效从20日的 06点(UTC)到 21日的 12点(UTC)
风速7节,风向北转西北
能見度: 10公里
散云层高于2500英尺
多云层高于5000英尺
从 20日的 1000点(UTC)
风速12节,风向,有时为18节阵风
能見度: 10公里
少量云层高于2500英尺
散云层高于5000英尺
从 20日的 1600点(UTC)
风速8节,风向
能見度: 10公里
散云层高于5000英尺
从 20日的 1800点(UTC)
风速15节,风向西转西北,有时为25节阵风
能見度: 10公里
天空无云
从 20日的 2100点(UTC)
风速22节,风向西,有时为32节阵风
能見度: 10公里
天空无云
从 21日的 0300点(UTC)
风速12节,风向西转西北
能見度: 10公里
天空无云
从 21日的 0600点(UTC)
风速12节,风向北转西北
能見度: 10公里
天空无云

TAF: KLAX 200547Z 2006/2112 34007KT P6SM SCT025 BKN050 FM201000 35012G18KT P6SM FEW025 SCT050 FM201600 35008KT P6SM SCT050 FM201800 29015G25KT P6SM SKC FM202100 28022G32KT P6SM SKC FM210300 29012KT P6SM SKC FM210600 34012KT P6SM SKC

超过4000个机场的气象观测和天气预报(METAR&TAF报告)。

可查询的气象台以黄色和红色小点在地图上表示。

将鼠标移到小点上方,可查看气象台名称。

然后点击查看天气观测和预报。

如需切换地图:点击带黑十字的绿色按钮放大地图;点击带横线的绿色按钮缩小地图;或者点击绿色箭头查看邻近地区的地图。


METAR-TAF: